CBA3 weather

Kincolith Seaplane Base
British Columbia, Canada

Public forecast

Using degrees Celsius for public forecast. Weather courtesy of forecast.io.

METAR (pilot weather report)

Closest report is Prince Rupert Airport, 46.2 nm (85.5 km) SSW. Retrieved 2019/07/22 07:00 UTC (30 minutes ago):

CYPR 220700Z AUTO VRB02KT 9SM CLR 13/12 A3002 RMK SLP169

TAF (pilot weather forecast)

Closest forecast is Prince Rupert Airport, 46.2 nm (85.5 km) SSW. Retrieved 2019/07/22 07:39 UTC (0 seconds ago):

TAF CYPR 220638Z 2207/2219 VRB03KT P6SM SCT015 SCT070 TEMPO 2207/2214 BKN015 BKN070 FM221500 VRB03KT P6SM SCT080 TEMPO 2215/2219 BKN080 RMK FCST BASED ON AUTO OBS. NXT FCST BY 221300Z